Time;durP1;ratioP1;P1;durP2;ratioP2;P2;SDS_P1;SDS_P2;PMS_P1;PMS_P2;Temp;Humidity;BMP_temperature;BMP_pressure;BME280_temperature;BME280_humidity;BME280_pressure;Samples;Min_cycle;Max_cycle;Signal;HPM_P1;HPM_P2
2023/10/08 00:01:21;;;;;;;0.10;0.10;;;;;;;5.56;79.99;96412.88;4966581;28;20542;-70
2023/10/08 00:03:53;;;;;;;0.10;0.10;;;;;;;5.53;80.87;96421.63;4948356;28;20055;-71
2023/10/08 00:06:21;;;;;;;0.10;0.10;;;;;;;5.54;80.23;96410.47;4950213;28;20073;-70
2023/10/08 00:08:48;;;;;;;;;;;;;;;5.60;80.42;96424.66;4964842;28;20058;-71
2023/10/08 00:11:15;;;;;;;0.10;0.10;;;;;;;5.53;80.47;96424.34;4968358;28;20363;-71
2023/10/08 00:13:43;;;;;;;0.10;0.10;;;;;;;5.58;79.69;96415.25;4975706;28;20426;-71
2023/10/08 00:16:17;;;;;;;0.00;0.00;;;;;;;5.57;79.26;96417.16;4984264;28;20538;-71
2023/10/08 00:18:50;;;;;;;0.10;0.10;;;;;;;5.48;78.46;96411.78;4969388;28;20065;-69
2023/10/08 00:21:19;;;;;;;0.10;0.10;;;;;;;5.51;79.45;96403.00;4968671;28;20073;-69
2023/10/08 00:23:59;;;;;;;0.10;0.10;;;;;;;5.51;79.01;96415.75;4969391;28;20046;-69
2023/10/08 00:26:34;;;;;;;0.10;0.10;;;;;;;5.45;78.91;96436.00;4965790;28;20506;-70
2023/10/08 00:29:21;;;;;;;0.10;0.10;;;;;;;5.42;77.90;96423.91;4969333;28;20050;-71
2023/10/08 00:31:49;;;;;;;0.00;0.00;;;;;;;5.40;77.87;96420.72;4968884;28;20213;-71
2023/10/08 00:34:19;;;;;;;0.10;0.10;;;;;;;5.36;78.09;96425.19;4968011;28;20515;-72
2023/10/08 00:36:50;;;;;;;0.10;0.10;;;;;;;5.38;76.75;96433.81;4973337;28;20058;-71
2023/10/08 00:39:34;;;;;;;0.10;0.10;;;;;;;5.35;76.72;96420.91;4975334;28;20395;-71
2023/10/08 00:42:04;;;;;;;0.10;0.10;;;;;;;5.33;76.90;96420.44;4987776;28;20043;-70
2023/10/08 00:44:32;;;;;;;0.10;0.10;;;;;;;5.35;77.82;96410.06;4973503;28;20195;-71
2023/10/08 00:47:06;;;;;;;0.10;0.10;;;;;;;5.32;75.90;96418.84;4972499;28;20537;-71
2023/10/08 00:55:28;;;;;;;0.10;0.10;;;;;;;5.13;76.59;96406.44;4971195;28;20533;-70
2023/10/08 00:57:28;;;;;;;0.10;0.10;;;;;;;5.10;76.00;96420.63;4962700;28;20046;-70
2023/10/08 00:59:55;;;;;;;0.10;0.10;;;;;;;5.06;75.59;96436.72;4963475;28;20063;-69
2023/10/08 01:02:27;;;;;;;0.10;0.10;;;;;;;5.05;75.15;96434.34;4968835;28;20146;-70
2023/10/08 01:04:55;;;;;;;0.10;0.10;;;;;;;5.04;74.27;96403.75;4970156;28;20423;-71
2023/10/08 01:07:21;;;;;;;;;;;;;;;5.10;74.51;96418.72;4975277;28;20054;-71
2023/10/08 01:09:58;;;;;;;0.10;0.10;;;;;;;5.03;74.71;96421.13;4969872;28;20175;-70
2023/10/08 01:12:33;;;;;;;0.10;0.10;;;;;;;5.02;75.30;96388.97;4965803;28;20042;-70
2023/10/08 01:15:13;;;;;;;0.10;0.10;;;;;;;4.99;75.65;96411.25;4969439;28;20602;-70
2023/10/08 01:17:48;;;;;;;0.00;0.00;;;;;;;5.04;75.74;96430.84;4968631;28;20165;-70
2023/10/08 01:20:37;;;;;;;0.10;0.10;;;;;;;5.07;75.85;96413.97;4970083;28;20136;-70
2023/10/08 01:23:12;;;;;;;0.10;0.10;;;;;;;5.16;76.21;96430.19;4967770;28;20035;-70
2023/10/08 01:25:40;;;;;;;0.10;0.10;;;;;;;5.16;75.00;96426.69;4970277;28;20694;-70
2023/10/08 01:30:54;;;;;;;0.10;0.10;;;;;;;5.13;73.13;96432.75;4973251;28;20157;-70
2023/10/08 01:33:22;;;;;;;0.08;0.08;;;;;;;5.03;73.14;96420.34;4972923;28;20345;-70
2023/10/08 01:35:51;;;;;;;0.00;0.00;;;;;;;4.91;74.26;96413.66;4965320;28;20542;-71
2023/10/08 01:38:23;;;;;;;0.10;0.10;;;;;;;4.79;73.82;96433.25;4972673;28;20425;-70
2023/10/08 01:40:53;;;;;;;0.10;0.10;;;;;;;4.72;75.78;96427.50;4967866;28;20067;-70
2023/10/08 01:43:20;;;;;;;0.10;0.10;;;;;;;4.70;74.16;96424.34;4975065;28;20050;-70
2023/10/08 01:45:52;;;;;;;0.10;0.10;;;;;;;4.68;74.33;96421.16;4981058;28;20054;-70
2023/10/08 01:48:27;;;;;;;0.00;0.00;;;;;;;4.78;74.45;96403.78;4950794;28;20046;-71
2023/10/08 01:50:55;;;;;;;0.10;0.10;;;;;;;4.76;74.17;96406.84;4967489;28;20051;-71
2023/10/08 01:53:23;;;;;;;0.00;0.00;;;;;;;4.83;74.67;96460.47;4969029;28;20082;-69
2023/10/08 01:55:51;;;;;;;0.10;0.10;;;;;;;4.85;74.84;96422.25;4966771;28;20058;-69
2023/10/08 01:58:18;;;;;;;0.00;0.00;;;;;;;4.84;74.27;96432.31;4949210;28;20045;-70
2023/10/08 02:00:46;;;;;;;0.10;0.10;;;;;;;4.85;74.41;96420.38;4940098;28;20465;-69
2023/10/08 02:03:18;;;;;;;0.10;0.10;;;;;;;4.81;75.20;96422.09;4965828;28;20486;-71
2023/10/08 02:05:46;;;;;;;0.10;0.10;;;;;;;4.80;76.69;96439.44;4966265;28;20078;-70
2023/10/08 02:08:14;;;;;;;0.10;0.10;;;;;;;4.76;76.29;96406.03;4967694;28;20055;-70
2023/10/08 02:10:44;;;;;;;0.10;0.10;;;;;;;4.81;73.53;96409.38;4941688;28;20046;-69
2023/10/08 02:13:13;;;;;;;0.10;0.10;;;;;;;4.77;75.03;96432.78;4968715;28;20045;-69
2023/10/08 02:15:43;;;;;;;0.10;0.10;;;;;;;4.76;73.56;96430.38;4968860;28;20470;-70
2023/10/08 02:18:09;;;;;;;0.10;0.10;;;;;;;4.72;74.12;96429.44;4960487;28;20046;-71
2023/10/08 02:20:36;;;;;;;0.10;0.10;;;;;;;4.70;74.30;96418.91;4969602;28;20517;-71
2023/10/08 02:23:05;;;;;;;0.10;0.10;;;;;;;4.71;74.41;96406.19;4947688;28;20047;-71
2023/10/08 02:25:34;;;;;;;0.10;0.10;;;;;;;4.75;73.75;96409.84;4965484;28;20057;-71
2023/10/08 02:28:04;;;;;;;0.00;0.00;;;;;;;4.74;73.36;96417.16;4953285;28;20055;-71
2023/10/08 02:30:31;;;;;;;0.10;0.10;;;;;;;4.73;73.42;96420.22;4973346;28;20473;-71
2023/10/08 02:32:58;;;;;;;0.10;0.10;;;;;;;4.75;72.58;96407.16;4990361;28;20146;-71
2023/10/08 02:35:24;;;;;;;0.10;0.10;;;;;;;4.63;73.17;96405.88;4970107;28;20046;-70
2023/10/08 02:37:52;;;;;;;0.08;0.08;;;;;;;4.62;74.19;96415.09;4952349;28;20047;-70
2023/10/08 02:40:27;;;;;;;;;;;;;;;4.60;72.67;96414.63;4967304;28;20049;-69
2023/10/08 02:42:58;;;;;;;0.10;0.10;;;;;;;4.47;75.17;96423.69;4952953;28;19926;-69
2023/10/08 02:45:27;;;;;;;0.10;0.10;;;;;;;4.43;76.58;96410.00;4963841;28;20097;-69
2023/10/08 02:47:54;;;;;;;0.10;0.10;;;;;;;4.15;78.95;96452.75;4972337;28;20047;-70
2023/10/08 02:50:22;;;;;;;0.10;0.10;;;;;;;4.00;79.36;96443.19;4964555;28;20146;-70
2023/10/08 02:52:49;;;;;;;;;;;;;;;3.87;81.57;96434.88;4944660;28;20050;-70
2023/10/08 02:55:33;;;;;;;0.10;0.10;;;;;;;3.89;79.70;96410.22;4969715;28;19949;-70
2023/10/08 02:58:02;;;;;;;0.10;0.10;;;;;;;3.86;80.37;96418.97;4944614;28;20051;-71
2023/10/08 03:00:30;;;;;;;0.03;0.03;;;;;;;3.86;79.76;96443.28;4965942;28;20085;-71
2023/10/08 03:03:01;;;;;;;0.10;0.10;;;;;;;3.90;79.40;96438.84;4968284;28;20573;-71
2023/10/08 03:05:32;;;;;;;0.10;0.10;;;;;;;3.89;80.52;96453.47;4972357;28;20074;-70
2023/10/08 03:07:59;;;;;;;0.10;0.10;;;;;;;3.91;80.20;96437.75;4950746;28;20070;-71
2023/10/08 03:10:32;;;;;;;0.00;0.00;;;;;;;3.79;80.89;96439.16;4952405;28;20406;-71
2023/10/08 03:13:06;;;;;;;0.00;0.00;;;;;;;3.74;80.89;96431.16;4963440;28;20518;-71
2023/10/08 03:18:21;;;;;;;0.00;0.00;;;;;;;3.85;81.03;96430.88;4965643;28;20054;-72
2023/10/08 03:20:49;;;;;;;0.00;0.00;;;;;;;3.81;82.17;96438.81;4968533;28;20094;-71
2023/10/08 03:23:23;;;;;;;0.10;0.10;;;;;;;3.88;82.52;96441.88;4970599;28;20073;-71
2023/10/08 03:26:00;;;;;;;0.10;0.10;;;;;;;3.81;83.39;96439.63;4960858;28;20449;-71
2023/10/08 03:28:27;;;;;;;0.10;0.10;;;;;;;3.60;84.99;96435.91;4947712;28;20046;-71
2023/10/08 03:31:04;;;;;;;0.10;0.10;;;;;;;3.40;86.81;96462.31;4968283;28;20078;-70
2023/10/08 03:33:34;;;;;;;0.10;0.10;;;;;;;3.26;87.09;96448.91;4964059;28;20133;-71
2023/10/08 03:36:09;;;;;;;0.10;0.10;;;;;;;3.24;88.79;96440.31;4962832;28;20038;-70
2023/10/08 03:38:52;;;;;;;0.00;0.00;;;;;;;3.25;88.90;96434.59;4944947;28;20042;-70
2023/10/08 03:41:28;;;;;;;0.10;0.10;;;;;;;3.32;85.09;96430.69;4967497;28;20078;-71
2023/10/08 03:44:06;;;;;;;0.10;0.10;;;;;;;3.31;86.94;96450.69;4966823;28;20047;-70
2023/10/08 03:46:43;;;;;;;0.10;0.10;;;;;;;3.36;87.14;96450.56;4951029;28;20043;-71
2023/10/08 03:51:52;;;;;;;0.00;0.00;;;;;;;3.44;83.93;96436.31;4980825;28;20137;-72
2023/10/08 03:54:19;;;;;;;0.00;0.00;;;;;;;3.52;81.53;96434.75;4954030;28;20051;-71
2023/10/08 03:56:48;;;;;;;0.10;0.10;;;;;;;3.62;81.97;96423.66;4973054;28;20137;-72
2023/10/08 03:59:40;;;;;;;0.10;0.10;;;;;;;3.69;81.66;96479.94;4992838;28;20513;-72
2023/10/08 04:02:14;;;;;;;0.10;0.10;;;;;;;3.72;80.18;96462.34;4966058;28;20070;-71
2023/10/08 04:04:56;;;;;;;0.10;0.10;;;;;;;3.59;80.73;96423.47;4973358;28;20054;-71
2023/10/08 04:10:05;;;;;;;0.10;0.10;;;;;;;3.51;81.24;96433.13;4972393;28;20054;-72
2023/10/08 04:12:34;;;;;;;0.10;0.10;;;;;;;3.59;80.54;96428.88;4966371;28;20042;-72
2023/10/08 04:15:05;;;;;;;0.10;0.10;;;;;;;3.67;81.80;96422.72;4949360;28;20053;-72
2023/10/08 04:17:43;;;;;;;0.10;0.10;;;;;;;3.76;80.79;96431.69;4990904;28;20500;-70
2023/10/08 04:22:56;;;;;;;0.10;0.10;;;;;;;3.76;79.70;96417.34;4969532;28;20054;-71
2023/10/08 04:25:22;;;;;;;0.10;0.10;;;;;;;3.41;81.06;96382.88;4969657;28;20209;-69
2023/10/08 04:27:49;;;;;;;0.10;0.10;;;;;;;3.76;81.14;96418.16;4976439;28;20585;-70
2023/10/08 04:30:16;;;;;;;0.10;0.10;;;;;;;3.79;78.91;96412.13;4977155;28;20404;-71
2023/10/08 04:32:43;;;;;;;0.10;0.10;;;;;;;3.74;79.22;96408.75;4951886;28;20050;-71
2023/10/08 04:35:14;;;;;;;0.10;0.10;;;;;;;3.76;79.66;96401.13;4967733;28;20058;-71
2023/10/08 04:37:41;;;;;;;0.10;0.10;;;;;;;3.80;79.78;96412.91;4963150;28;20043;-71
2023/10/08 04:40:16;;;;;;;0.10;0.10;;;;;;;3.89;78.62;96412.94;4966867;28;20048;-71
2023/10/08 04:42:45;;;;;;;0.10;0.10;;;;;;;3.91;79.43;96435.84;4971147;28;20046;-71
2023/10/08 04:45:14;;;;;;;0.00;0.00;;;;;;;3.88;79.18;96406.75;4964311;28;20046;-71
2023/10/08 04:47:42;;;;;;;0.10;0.10;;;;;;;4.01;77.42;96442.09;4970082;28;20527;-70
2023/10/08 04:50:16;;;;;;;0.10;0.10;;;;;;;3.99;78.38;96409.94;4965104;28;20404;-70
2023/10/08 04:53:08;;;;;;;0.10;0.10;;;;;;;4.05;76.96;96419.47;4971233;28;20132;-69
2023/10/08 04:55:29;;;;;;;0.65;0.10;;;;;;;4.07;75.98;96432.69;4970609;28;20429;-69
2023/10/08 04:57:55;;;;;;;0.10;0.10;;;;;;;4.04;77.06;96412.50;4965587;28;20051;-70
2023/10/08 05:03:23;;;;;;;0.10;0.10;;;;;;;4.00;76.42;96425.06;4913196;28;20043;-71
2023/10/08 05:06:21;;;;;;;0.10;0.10;;;;;;;4.09;77.46;96412.38;4947169;28;20273;-71
2023/10/08 05:08:58;;;;;;;0.10;0.10;;;;;;;4.08;75.37;96440.50;4927208;29;20434;-71
2023/10/08 05:11:36;;;;;;;;;;;;;;;4.11;76.19;96439.88;4924189;29;20043;-72
2023/10/08 05:14:06;;;;;;;0.10;0.10;;;;;;;4.14;76.14;96438.47;4945943;28;19933;-71
2023/10/08 05:16:43;;;;;;;0.10;0.10;;;;;;;4.16;76.05;96443.53;4950381;28;20102;-71
2023/10/08 05:19:37;;;;;;;0.10;0.10;;;;;;;4.11;76.06;96439.06;4935564;28;20145;-73
2023/10/08 05:33:05;;;;;;;;;;;;;;;3.88;76.05;96471.63;4929806;28;20062;-72
2023/10/08 05:35:48;;;;;;;0.00;0.00;;;;;;;3.79;77.86;96460.78;4946976;28;19968;-71
2023/10/08 05:38:22;;;;;;;0.10;0.10;;;;;;;3.78;77.25;96453.78;4947854;28;20507;-71
2023/10/08 05:49:01;;;;;;;0.10;0.10;;;;;;;4.01;74.92;96455.59;4970677;28;19933;-71
2023/10/08 05:52:25;;;;;;;0.10;0.10;;;;;;;3.99;74.47;96465.94;4971045;28;20050;-71
2023/10/08 05:54:36;;;;;;;0.10;0.10;;;;;;;4.10;74.04;96469.91;4947428;28;20065;-71
2023/10/08 05:59:52;;;;;;;0.10;0.10;;;;;;;4.15;72.13;96458.97;4972434;28;20070;-72
2023/10/08 06:02:39;;;;;;;0.10;0.10;;;;;;;4.13;71.89;96452.28;4961841;28;20047;-71
2023/10/08 06:07:56;;;;;;;0.10;0.10;;;;;;;4.25;72.05;96455.19;4969480;28;20046;-69
2023/10/08 06:13:05;;;;;;;0.10;0.10;;;;;;;4.15;72.20;96471.69;4965288;28;20054;-69
2023/10/08 06:15:48;;;;;;;0.10;0.10;;;;;;;4.19;73.20;96457.22;4962196;28;20042;-70
2023/10/08 06:18:15;;;;;;;0.10;0.10;;;;;;;4.18;72.17;96485.38;4964339;28;20042;-69
2023/10/08 06:20:45;;;;;;;0.10;0.10;;;;;;;4.14;72.63;96503.34;4980680;28;20050;-69
2023/10/08 06:23:12;;;;;;;0.10;0.10;;;;;;;3.98;73.80;96473.22;4968553;28;20581;-69
2023/10/08 06:25:46;;;;;;;0.10;0.10;;;;;;;3.85;73.92;96487.66;4965605;28;20330;-69
2023/10/08 06:28:20;;;;;;;0.10;0.10;;;;;;;3.83;75.89;96482.56;4964358;28;20053;-70
2023/10/08 06:30:47;;;;;;;0.10;0.10;;;;;;;3.89;77.11;96481.31;4966674;28;20047;-69
2023/10/08 06:33:14;;;;;;;0.10;0.10;;;;;;;3.92;74.63;96494.19;4972936;28;20510;-69
2023/10/08 06:35:44;;;;;;;0.10;0.10;;;;;;;3.70;75.24;96462.63;4976029;28;20047;-71
2023/10/08 06:38:11;;;;;;;0.10;0.10;;;;;;;3.82;75.74;96489.88;4966169;28;20576;-71
2023/10/08 06:43:14;;;;;;;0.10;0.10;;;;;;;4.08;73.47;96472.97;4971923;28;20057;-72
2023/10/08 06:45:43;;;;;;;0.10;0.10;;;;;;;4.15;72.94;96501.44;4982134;28;20419;-71
2023/10/08 06:48:09;;;;;;;0.10;0.10;;;;;;;4.19;71.59;96475.34;4976155;28;20054;-72
2023/10/08 06:50:36;;;;;;;0.10;0.10;;;;;;;4.19;71.48;96489.69;4965849;28;20367;-72
2023/10/08 06:53:07;;;;;;;0.10;0.10;;;;;;;4.31;70.45;96477.47;4966227;28;20137;-72
2023/10/08 06:55:38;;;;;;;0.32;0.10;;;;;;;4.35;69.27;96489.25;4966436;28;20039;-71
2023/10/08 06:58:07;;;;;;;0.10;0.10;;;;;;;4.37;69.23;96490.53;4963828;28;20053;-72
2023/10/08 07:00:39;;;;;;;0.10;0.10;;;;;;;4.36;70.64;96493.53;4962639;28;20093;-72
2023/10/08 07:03:10;;;;;;;0.10;0.10;;;;;;;4.35;69.83;96513.59;4967523;28;20055;-70
2023/10/08 07:05:40;;;;;;;0.10;0.10;;;;;;;4.15;69.39;96518.47;4962988;28;20434;-69
2023/10/08 07:08:08;;;;;;;0.10;0.10;;;;;;;4.00;71.58;96499.97;4955114;28;20066;-70
2023/10/08 07:10:34;;;;;;;0.10;0.10;;;;;;;4.07;71.32;96509.22;4964687;28;20050;-70
2023/10/08 07:13:02;;;;;;;0.10;0.10;;;;;;;4.07;71.57;96503.81;4966216;28;20046;-71
2023/10/08 07:15:30;;;;;;;;;;;;;;;4.23;72.21;96506.09;4945581;28;20047;-71
2023/10/08 07:17:56;;;;;;;0.17;0.17;;;;;;;4.35;71.41;96500.84;4971998;28;19926;-71
2023/10/08 07:20:24;;;;;;;0.10;0.10;;;;;;;4.35;70.24;96511.66;4966706;28;20062;-71
2023/10/08 07:22:55;;;;;;;0.10;0.10;;;;;;;4.22;70.35;96513.38;4962832;28;20161;-71
2023/10/08 07:25:23;;;;;;;0.10;0.10;;;;;;;4.16;71.13;96530.88;4935562;28;20069;-72
2023/10/08 07:27:49;;;;;;;0.10;0.10;;;;;;;4.16;69.60;96511.94;4966670;28;20050;-71
2023/10/08 07:30:26;;;;;;;0.10;0.10;;;;;;;4.14;69.90;96513.38;4603138;28;10000191;-71
2023/10/08 07:32:54;;;;;;;0.10;0.10;;;;;;;4.13;69.19;96517.97;4959938;28;20043;-72
2023/10/08 07:37:50;;;;;;;0.10;0.10;;;;;;;4.18;69.79;96517.03;4964391;28;19926;-72
2023/10/08 07:40:17;;;;;;;0.10;0.10;;;;;;;4.33;67.91;96546.34;4967576;28;20153;-69
2023/10/08 07:42:44;;;;;;;0.10;0.10;;;;;;;4.25;67.60;96528.97;4964341;28;20035;-71
2023/10/08 07:45:17;;;;;;;0.10;0.10;;;;;;;4.29;67.44;96483.19;4978021;28;20525;-72
2023/10/08 07:47:44;;;;;;;0.10;0.10;;;;;;;4.38;67.43;96515.66;4971606;28;20042;-71
2023/10/08 07:50:12;;;;;;;0.20;0.20;;;;;;;4.33;67.01;96527.41;4974032;28;20055;-71
2023/10/08 07:52:42;;;;;;;0.10;0.10;;;;;;;4.43;66.98;96522.84;4971313;28;20070;-69
2023/10/08 07:55:09;;;;;;;0.10;0.10;;;;;;;4.50;67.84;96529.38;4966603;28;20100;-71
2023/10/08 07:57:36;;;;;;;0.10;0.10;;;;;;;4.64;64.67;96517.63;4970616;28;20262;-69
2023/10/08 08:00:21;;;;;;;0.10;0.10;;;;;;;4.23;65.51;96508.78;4964982;28;20054;-69
2023/10/08 08:02:49;;;;;;;0.10;0.10;;;;;;;4.40;66.21;96516.13;4931650;28;20533;-69
2023/10/08 08:05:17;;;;;;;0.10;0.10;;;;;;;4.47;65.34;96550.84;4969037;28;20037;-69
2023/10/08 08:07:49;;;;;;;0.10;0.10;;;;;;;4.31;65.36;96564.03;4952817;28;20141;-69
2023/10/08 08:10:18;;;;;;;0.10;0.10;;;;;;;4.24;66.31;96538.22;4966678;28;20047;-69
2023/10/08 08:12:45;;;;;;;0.10;0.10;;;;;;;4.15;65.72;96512.25;4969790;28;20054;-70
2023/10/08 08:15:15;;;;;;;0.10;0.10;;;;;;;4.31;65.39;96585.66;4970164;28;20035;-69
2023/10/08 08:17:41;;;;;;;0.10;0.10;;;;;;;4.30;65.58;96552.41;4972109;28;20476;-69
2023/10/08 08:20:18;;;;;;;0.10;0.10;;;;;;;4.20;64.18;96533.72;4963319;28;20066;-69
2023/10/08 08:22:54;;;;;;;0.10;0.10;;;;;;;4.11;65.45;96539.94;4948555;28;20054;-70
2023/10/08 08:25:34;;;;;;;0.10;0.10;;;;;;;4.35;66.24;96567.69;4967160;28;20157;-71
2023/10/08 08:28:01;;;;;;;0.10;0.10;;;;;;;4.46;65.93;96541.16;4961852;28;20049;-69
2023/10/08 08:30:27;;;;;;;0.10;0.10;;;;;;;4.67;64.14;96576.53;4956954;28;20090;-69
2023/10/08 08:32:56;;;;;;;0.10;0.10;;;;;;;4.79;63.70;96584.84;4963995;28;20049;-69
2023/10/08 08:35:23;;;;;;;0.10;0.10;;;;;;;4.74;62.14;96536.25;4964461;28;20333;-69
2023/10/08 08:37:51;;;;;;;0.10;0.10;;;;;;;4.64;62.41;96540.06;4962006;28;20503;-69
2023/10/08 08:40:19;;;;;;;0.13;0.13;;;;;;;4.88;62.56;96541.53;4965054;28;20054;-70
2023/10/08 08:42:48;;;;;;;0.17;0.17;;;;;;;5.11;61.86;96535.97;4965565;28;20180;-70
2023/10/08 08:45:18;;;;;;;;;;;;;;;5.09;61.44;96535.50;4965947;28;20617;-70
2023/10/08 08:47:45;;;;;;;0.10;0.10;;;;;;;5.08;61.78;96540.13;4988582;28;20043;-70
2023/10/08 08:50:12;;;;;;;0.10;0.10;;;;;;;5.01;61.10;96547.13;4974663;28;20521;-70
2023/10/08 08:52:40;;;;;;;0.10;0.10;;;;;;;4.91;60.98;96567.16;4974098;28;20426;-70
2023/10/08 08:55:14;;;;;;;;;;;;;;;4.80;61.35;96558.56;4977664;28;20049;-70
2023/10/08 08:57:43;;;;;;;0.10;0.10;;;;;;;4.76;61.75;96538.66;4972207;28;19926;-69
2023/10/08 09:00:12;;;;;;;0.10;0.10;;;;;;;4.82;61.48;96548.22;4970876;28;20084;-69
2023/10/08 09:02:38;;;;;;;0.10;0.10;;;;;;;4.67;60.90;96561.06;4976941;28;20042;-70
2023/10/08 09:05:13;;;;;;;0.10;0.10;;;;;;;4.76;61.46;96595.50;4974593;28;20084;-69
2023/10/08 09:07:52;;;;;;;0.17;0.17;;;;;;;4.74;60.42;96557.91;4972494;28;20074;-69
2023/10/08 09:10:26;;;;;;;0.20;0.20;;;;;;;4.88;62.18;96568.63;4972355;28;20047;-69
2023/10/08 09:12:52;;;;;;;0.10;0.10;;;;;;;4.97;60.90;96582.16;4979814;28;20088;-69
2023/10/08 09:15:19;;;;;;;0.10;0.10;;;;;;;4.97;61.38;96566.69;4972787;28;20042;-68
2023/10/08 09:17:46;;;;;;;0.10;0.10;;;;;;;4.95;61.11;96555.41;4976679;28;20045;-69
2023/10/08 09:20:14;;;;;;;0.10;0.10;;;;;;;4.78;60.78;96591.38;4976169;28;20046;-69
2023/10/08 09:22:41;;;;;;;0.10;0.10;;;;;;;4.65;61.81;96576.06;4995164;28;20046;-70
2023/10/08 09:25:08;;;;;;;;;;;;;;;4.61;62.10;96605.66;4991373;28;20053;-70
2023/10/08 09:27:37;;;;;;;0.10;0.10;;;;;;;4.56;61.50;96570.63;4979275;28;19933;-70
2023/10/08 09:30:08;;;;;;;0.10;0.10;;;;;;;4.65;61.72;96571.44;4971494;28;20542;-70
2023/10/08 09:32:39;;;;;;;0.20;0.20;;;;;;;4.87;61.04;96596.81;4978678;28;20043;-69
2023/10/08 09:35:07;;;;;;;0.10;0.10;;;;;;;4.91;61.00;96605.88;4978154;28;20142;-69
2023/10/08 09:37:35;;;;;;;0.10;0.10;;;;;;;4.81;62.41;96576.41;4959523;28;20521;-70
2023/10/08 09:40:08;;;;;;;0.10;0.10;;;;;;;4.60;64.04;96587.00;4976774;28;20047;-70
2023/10/08 09:42:38;;;;;;;0.10;0.10;;;;;;;4.46;65.75;96600.66;4973650;28;20053;-70
2023/10/08 09:45:08;;;;;;;0.10;0.10;;;;;;;4.47;63.65;96600.38;4969510;28;20154;-68
2023/10/08 09:47:47;;;;;;;0.10;0.10;;;;;;;4.43;63.72;96604.00;4976743;28;20141;-70
2023/10/08 09:50:15;;;;;;;0.40;0.17;;;;;;;4.41;63.71;96588.06;4972301;28;20042;-69
2023/10/08 09:52:50;;;;;;;0.10;0.10;;;;;;;4.46;63.60;96590.66;4974789;28;20062;-69
2023/10/08 09:55:18;;;;;;;0.10;0.10;;;;;;;4.45;64.26;96596.38;4958160;28;20593;-70
2023/10/08 09:57:50;;;;;;;0.10;0.10;;;;;;;4.47;64.93;96599.56;4968433;28;20058;-68
2023/10/08 10:00:29;;;;;;;0.10;0.10;;;;;;;4.33;64.74;96592.34;4970264;28;20105;-70
2023/10/08 10:02:55;;;;;;;0.10;0.10;;;;;;;4.15;64.77;96615.81;4967808;28;20034;-69
2023/10/08 10:05:24;;;;;;;0.10;0.10;;;;;;;3.97;66.58;96620.34;4970082;28;20138;-70
2023/10/08 10:08:05;;;;;;;0.10;0.10;;;;;;;3.97;67.15;96604.88;4965932;28;20145;-69
2023/10/08 10:10:39;;;;;;;0.10;0.10;;;;;;;4.10;67.06;96627.56;4950812;28;20209;-69
2023/10/08 10:13:12;;;;;;;0.10;0.10;;;;;;;3.68;68.10;96572.94;4971284;28;20124;-70
2023/10/08 10:15:42;;;;;;;0.10;0.10;;;;;;;3.81;69.27;96626.13;4956769;28;20542;-69
2023/10/08 10:18:14;;;;;;;0.10;0.10;;;;;;;3.90;68.90;96636.16;4974725;28;20105;-69
2023/10/08 10:20:45;;;;;;;0.10;0.10;;;;;;;4.02;68.50;96611.28;4969149;28;20191;-69
2023/10/08 10:23:37;;;;;;;0.10;0.10;;;;;;;4.25;67.20;96604.72;4967917;28;20047;-71
2023/10/08 10:26:04;;;;;;;0.10;0.10;;;;;;;4.21;65.30;96627.28;4968666;28;20066;-71
2023/10/08 10:28:33;;;;;;;0.10;0.10;;;;;;;3.82;69.06;96616.09;4941634;28;20078;-71
2023/10/08 10:31:00;;;;;;;0.10;0.10;;;;;;;3.77;69.57;96597.31;4961762;28;20357;-70
2023/10/08 10:33:31;;;;;;;0.10;0.10;;;;;;;3.88;68.45;96624.88;4963027;28;20046;-68
2023/10/08 10:36:04;;;;;;;0.03;0.03;;;;;;;3.76;70.72;96628.97;4952442;28;20116;-70
2023/10/08 10:38:33;;;;;;;0.10;0.10;;;;;;;3.54;72.73;96660.25;4931233;28;20146;-69
2023/10/08 10:41:08;;;;;;;0.10;0.10;;;;;;;3.25;74.18;96642.53;4966869;28;20061;-70
2023/10/08 10:43:39;;;;;;;0.10;0.10;;;;;;;3.22;75.83;96634.25;4941255;28;20050;-69
2023/10/08 10:46:29;;;;;;;0.10;0.10;;;;;;;3.34;76.18;96642.59;4968334;28;20471;-71
2023/10/08 10:51:41;;;;;;;0.10;0.10;;;;;;;3.57;74.98;96647.22;4967698;28;20057;-70
2023/10/08 10:54:07;;;;;;;0.10;0.10;;;;;;;3.57;74.82;96637.25;4972558;28;20051;-70
2023/10/08 10:56:40;;;;;;;0.10;0.10;;;;;;;3.65;76.14;96657.31;4938213;28;20050;-69
2023/10/08 11:02:08;;;;;;;0.10;0.10;;;;;;;3.64;76.41;96639.50;4957187;28;20145;-69
2023/10/08 11:05:07;;;;;;;0.10;0.10;;;;;;;3.44;76.92;96649.69;4959864;28;20141;-70
2023/10/08 11:07:23;;;;;;;0.10;0.10;;;;;;;3.12;81.01;96654.97;4962692;28;20050;-69
2023/10/08 11:09:52;;;;;;;0.10;0.10;;;;;;;2.96;80.89;96651.00;4967963;28;20053;-70
2023/10/08 11:12:23;;;;;;;0.10;0.10;;;;;;;2.72;81.52;96653.91;4965070;28;20167;-70
2023/10/08 11:14:56;;;;;;;0.10;0.10;;;;;;;2.70;82.68;96662.28;4973652;28;20050;-70
2023/10/08 11:17:24;;;;;;;0.10;0.10;;;;;;;2.46;83.34;96630.13;4946814;28;20047;-70
2023/10/08 11:19:51;;;;;;;0.10;0.10;;;;;;;2.41;85.00;96668.78;4960485;28;20054;-69
2023/10/08 11:22:18;;;;;;;0.10;0.10;;;;;;;2.31;86.94;96679.75;4963956;28;20058;-69
2023/10/08 11:24:53;;;;;;;0.10;0.10;;;;;;;2.24;87.84;96666.66;4952454;28;20556;-68
2023/10/08 11:27:39;;;;;;;0.10;0.10;;;;;;;2.40;88.85;96673.38;4970152;28;20525;-67
2023/10/08 11:30:10;;;;;;;0.10;0.10;;;;;;;2.41;88.62;96661.50;4969822;28;20050;-67
2023/10/08 11:32:38;;;;;;;0.00;0.00;;;;;;;2.45;87.68;96668.97;4979463;28;20066;-67
2023/10/08 11:35:15;;;;;;;0.10;0.10;;;;;;;2.40;87.57;96686.06;4971723;28;20074;-68
2023/10/08 11:37:48;;;;;;;0.10;0.10;;;;;;;2.31;88.45;96656.28;4963647;28;20034;-67
2023/10/08 11:40:28;;;;;;;0.10;0.10;;;;;;;2.39;88.97;96661.00;4960179;28;20514;-67
2023/10/08 11:42:59;;;;;;;0.10;0.10;;;;;;;2.42;89.35;96683.88;4960844;28;20047;-66
2023/10/08 11:45:27;;;;;;;0.10;0.10;;;;;;;2.32;89.37;96657.88;4965154;28;20151;-67
2023/10/08 11:47:57;;;;;;;0.10;0.10;;;;;;;2.25;89.34;96647.47;4967117;28;20050;-67
2023/10/08 11:50:30;;;;;;;0.10;0.10;;;;;;;2.05;90.45;96648.66;4963204;28;20054;-67
2023/10/08 11:53:01;;;;;;;0.10;0.10;;;;;;;2.22;91.29;96661.56;4964224;28;20043;-67
2023/10/08 11:55:28;;;;;;;0.10;0.10;;;;;;;2.26;89.86;96659.06;4963829;28;20047;-66
2023/10/08 11:57:54;;;;;;;0.10;0.10;;;;;;;2.43;89.05;96673.88;4957297;28;20046;-67
2023/10/08 12:00:24;;;;;;;0.10;0.10;;;;;;;2.43;88.11;96674.69;4952461;28;20074;-67
2023/10/08 12:02:56;;;;;;;0.10;0.10;;;;;;;2.20;88.15;96649.50;4968606;28;20061;-67
2023/10/08 12:05:23;;;;;;;0.10;0.10;;;;;;;2.28;87.41;96654.19;4978016;28;20089;-67
2023/10/08 12:07:50;;;;;;;0.10;0.10;;;;;;;2.44;87.70;96673.59;4968607;28;20530;-67
2023/10/08 12:10:21;;;;;;;0.10;0.10;;;;;;;2.48;87.63;96674.59;4950114;28;20105;-66
2023/10/08 12:12:51;;;;;;;0.10;0.10;;;;;;;2.50;87.22;96647.31;4966355;28;20336;-66
2023/10/08 12:15:22;;;;;;;0.10;0.10;;;;;;;2.71;86.71;96665.81;4984078;28;20531;-67
2023/10/08 12:18:39;;;;;;;0.10;0.10;;;;;;;2.68;85.75;96657.22;4968687;28;20046;-67
2023/10/08 12:20:38;;;;;;;0.10;0.10;;;;;;;2.52;85.91;96664.00;4973970;28;20043;-66
2023/10/08 12:23:05;;;;;;;0.10;0.10;;;;;;;2.48;87.11;96676.47;4967590;28;20529;-66
2023/10/08 12:25:32;;;;;;;0.10;0.10;;;;;;;2.53;87.92;96666.38;4970515;28;20596;-67
2023/10/08 12:28:03;;;;;;;0.10;0.10;;;;;;;2.57;86.58;96665.78;4972446;28;20141;-66
2023/10/08 12:30:31;;;;;;;0.08;0.08;;;;;;;2.50;87.24;96658.13;4968149;28;20063;-66
2023/10/08 12:32:59;;;;;;;0.10;0.10;;;;;;;2.47;87.36;96664.09;4969557;28;20047;-67
2023/10/08 12:35:27;;;;;;;0.10;0.10;;;;;;;2.47;87.27;96672.19;4976206;28;20058;-67
2023/10/08 12:37:55;;;;;;;0.10;0.10;;;;;;;2.46;86.46;96646.31;4963590;28;20449;-67
2023/10/08 12:40:24;;;;;;;0.10;0.10;;;;;;;2.34;86.36;96654.91;4969092;28;20051;-66
2023/10/08 12:42:52;;;;;;;0.05;0.05;;;;;;;2.34;86.85;96655.72;4966571;28;20042;-67
2023/10/08 12:45:21;;;;;;;0.13;0.10;;;;;;;2.32;87.99;96665.19;4964716;28;20050;-67
2023/10/08 12:47:49;;;;;;;0.10;0.10;;;;;;;2.32;87.28;96682.16;4952862;28;20137;-67
2023/10/08 12:50:17;;;;;;;0.10;0.10;;;;;;;2.42;88.34;96670.41;4970867;28;20506;-68
2023/10/08 12:52:52;;;;;;;0.10;0.10;;;;;;;2.53;85.83;96687.19;4964336;28;20329;-67
2023/10/08 12:55:24;;;;;;;0.10;0.10;;;;;;;2.49;87.20;96672.69;4964240;28;20058;-66
2023/10/08 12:57:55;;;;;;;0.10;0.10;;;;;;;2.57;86.56;96682.78;4961103;28;20104;-67
2023/10/08 13:00:26;;;;;;;0.10;0.10;;;;;;;2.51;86.42;96659.72;4964922;28;20113;-66
2023/10/08 13:02:55;;;;;;;0.10;0.10;;;;;;;2.53;87.39;96679.09;4974303;28;20643;-66